MOL Partner — 3EBZ5 — position and weather

sailwx.info

Track history (hours):
 
Tides and Currents Weather Stations Pressure Air Temp Water Temp Dewpoint Dewpoint Depression Visibility Wind Speed Wind Dir Waves Ship Positions

MOL Partner

Last reported at 2017-Nov-11 21:35 UTC. Time now 2017-Nov-18 08:59 UTC.
Position N 24°11' E 118°50'.

Length 293 m; draft 12 m.

Type: Cargo ship. MMSI: 371303000.

Date/timePositionNaut miles runAvg speedWind from/ knotsBaromVisibWave heightAir tempDewpointWater temp
2017-Nov-11 21:35N 24°11' E 118°50'317.9
2017-Nov-11 21:26N 24°10' E 118°47'2218.6
2017-Nov-11 20:15N 23°55' E 118°29'418.6
2017-Nov-11 20:00N 23°53' E 118°25'18618.0
2017-Nov-11 09:38N 22°17' E 115°31'417.5
2017-Nov-11 09:25N 22°16' E 115°27'717.5
2017-Nov-11 09:00N 22°16' E 115°19'917.6
2017-Nov-11 08:30N 22°15' E 115°10'917.9
2017-Nov-11 08:00N 22°15' E 115°00'918.1
2017-Nov-11 07:30N 22°16' E 114°50'918.1
2017-Nov-11 07:00N 22°19' E 114°41'918.0
2017-Nov-11 06:30N 22°22' E 114°32'815.1
2017-Nov-11 06:00N 22°28' E 114°27'4 8.4
2017-Nov-11 05:30N 22°31' E 114°24'613.0
2017-Nov-11 05:00N 22°34' E 114°18'2 3.0
2017-Nov-11 04:29N 22°34' E 114°16'0 0.4
2017-Nov-11 03:58N 22°35' E 114°16'0 0.1
2017-Nov-11 03:22N 22°34' E 114°16'0 0.0
2017-Nov-11 02:58N 22°34' E 114°16'0 0.1
2017-Nov-11 02:28N 22°34' E 114°16'0 0.0
2017-Nov-11 01:58N 22°34' E 114°16'0 0.0
2017-Nov-11 01:25N 22°34' E 114°16'0 0.0
2017-Nov-11 00:55N 22°34' E 114°16'0 0.1
2017-Nov-11 00:28N 22°34' E 114°16'0 0.0
2017-Nov-10 23:55N 22°34' E 114°16'0 0.0
2017-Nov-10 22:52N 22°34' E 114°16'0 0.0
2017-Nov-10 22:04N 22°34' E 114°16'0 0.1
2017-Nov-10 21:58N 22°34' E 114°16'0 0.0
2017-Nov-10 21:28N 22°34' E 114°16'0 0.0
2017-Nov-10 20:58N 22°34' E 114°16'0 0.0
2017-Nov-10 20:16N 22°34' E 114°16'0 0.1
2017-Nov-10 19:58N 22°34' E 114°16'0 0.0
2017-Nov-10 19:28N 22°34' E 114°16'0 0.0
2017-Nov-10 18:46N 22°34' E 114°16'0 0.0
2017-Nov-10 16:52N 22°34' E 114°16'0 0.0
2017-Nov-10 15:55N 22°34' E 114°16'0 0.0
2017-Nov-10 15:25N 22°34' E 114°16'0 0.1
2017-Nov-10 14:58N 22°34' E 114°16'0 0.0
2017-Nov-10 14:28N 22°34' E 114°16'0 0.0
2017-Nov-10 13:58N 22°34' E 114°16'0 0.0
2017-Nov-10 13:28N 22°34' E 114°16'0 0.0
2017-Nov-10 12:58N 22°34' E 114°16'0 0.0
2017-Nov-10 12:28N 22°34' E 114°16'0 0.1
2017-Nov-10 11:58N 22°34' E 114°16'0 0.1
2017-Nov-10 11:28N 22°34' E 114°16'0 0.0
2017-Nov-10 10:58N 22°34' E 114°16'0 0.0
2017-Nov-10 10:30N 22°34' E 114°16'1 2.4
2017-Nov-10 10:00N 22°34' E 114°17'510.3
2017-Nov-10 09:30N 22°33' E 114°23'510.6
2017-Nov-10 09:00N 22°29' E 114°27'714.6
2017-Nov-10 08:30N 22°23' E 114°30'917.4
2017-Nov-10 08:00N 22°20' E 114°39'917.5
2017-Nov-10 07:30N 22°17' E 114°48'917.4
2017-Nov-10 07:00N 22°13' E 114°56'917.7
2017-Nov-10 06:30N 22°13' E 115°06'917.7
2017-Nov-10 06:00N 22°13' E 115°15'917.8
2017-Nov-10 05:30N 22°14' E 115°25'25119.1
2017-Nov-09 16:22N 22°30' E 119°55'719.0
2017-Nov-09 16:00N 22°31' E 120°03'917.5
2017-Nov-09 15:30N 22°32' E 120°12'611.6
2017-Nov-09 15:00N 22°33' E 120°18'1 2.2
2017-Nov-09 14:22N 22°33' E 120°20'0 0.0
2017-Nov-09 10:49N 22°33' E 120°20'0 0.0
2017-Nov-09 08:43N 22°33' E 120°20'0 0.0
2017-Nov-09 08:13N 22°33' E 120°20'0 0.0
2017-Nov-09 06:25N 22°33' E 120°20'0 0.0
2017-Nov-09 05:58N 22°33' E 120°20'0 0.0
2017-Nov-09 05:28N 22°33' E 120°20'0 0.0
2017-Nov-09 04:52N 22°33' E 120°20'0 0.0
2017-Nov-09 04:22N 22°33' E 120°20'0 0.0
2017-Nov-09 03:58N 22°33' E 120°20'0 0.0
2017-Nov-09 03:22N 22°33' E 120°20'0 0.0
2017-Nov-09 02:43N 22°33' E 120°20'0 0.0
2017-Nov-09 02:30N 22°33' E 120°20'1 2.0
2017-Nov-09 02:00N 22°33' E 120°19'4 7.2
2017-Nov-09 01:30N 22°32' E 120°15'2 3.1
2017-Nov-09 01:00N 22°32' E 120°14'3 6.6
2017-Nov-09 00:30N 22°30' E 120°10'612.9
2017-Nov-09 00:00N 22°29' E 120°04'1019.0
2017-Nov-08 23:30N 22°22' E 119°56'  
2017-Nov-01 23:58N 01°15' E 104°02'714.4
2017-Nov-01 23:30N 01°14' E 103°56'3 7.0
2017-Nov-01 23:00N 01°14' E 103°52'3 5.1
2017-Nov-01 22:30N 01°16' E 103°51'1 1.2
2017-Nov-01 22:00N 01°16' E 103°50'  
Track history (hours):
 
Tides and Currents Weather Stations Pressure Air Temp Water Temp Dewpoint Dewpoint Depression Visibility Wind Speed Wind Dir Waves Ship Positions

MOL Partner

Last reported at 2017-Nov-11 21:35 UTC. Time now 2017-Nov-18 08:59 UTC.
Position N 24°11' E 118°50'.

Length 293 m; draft 12 m.

Type: Cargo ship. MMSI: 371303000.

Date/timePositionNaut miles runAvg speedWind from/ knotsBaromVisibWave heightAir tempDewpointWater temp
2017-Nov-11 21:35N 24°11' E 118°50'317.9
2017-Nov-11 21:26N 24°10' E 118°47'2218.6
2017-Nov-11 20:15N 23°55' E 118°29'418.6
2017-Nov-11 20:00N 23°53' E 118°25'18618.0
2017-Nov-11 09:38N 22°17' E 115°31'417.5
2017-Nov-11 09:25N 22°16' E 115°27'717.5
2017-Nov-11 09:00N 22°16' E 115°19'917.6
2017-Nov-11 08:30N 22°15' E 115°10'917.9
2017-Nov-11 08:00N 22°15' E 115°00'918.1
2017-Nov-11 07:30N 22°16' E 114°50'918.1
2017-Nov-11 07:00N 22°19' E 114°41'918.0
2017-Nov-11 06:30N 22°22' E 114°32'815.1
2017-Nov-11 06:00N 22°28' E 114°27'4 8.4
2017-Nov-11 05:30N 22°31' E 114°24'613.0
2017-Nov-11 05:00N 22°34' E 114°18'2 3.0
2017-Nov-11 04:29N 22°34' E 114°16'0 0.4
2017-Nov-11 03:58N 22°35' E 114°16'0 0.1
2017-Nov-11 03:22N 22°34' E 114°16'0 0.0
2017-Nov-11 02:58N 22°34' E 114°16'0 0.1
2017-Nov-11 02:28N 22°34' E 114°16'0 0.0
2017-Nov-11 01:58N 22°34' E 114°16'0 0.0
2017-Nov-11 01:25N 22°34' E 114°16'0 0.0
2017-Nov-11 00:55N 22°34' E 114°16'0 0.1
2017-Nov-11 00:28N 22°34' E 114°16'0 0.0
2017-Nov-10 23:55N 22°34' E 114°16'0 0.0
2017-Nov-10 22:52N 22°34' E 114°16'0 0.0
2017-Nov-10 22:04N 22°34' E 114°16'0 0.1
2017-Nov-10 21:58N 22°34' E 114°16'0 0.0
2017-Nov-10 21:28N 22°34' E 114°16'0 0.0
2017-Nov-10 20:58N 22°34' E 114°16'0 0.0
2017-Nov-10 20:16N 22°34' E 114°16'0 0.1
2017-Nov-10 19:58N 22°34' E 114°16'0 0.0
2017-Nov-10 19:28N 22°34' E 114°16'0 0.0
2017-Nov-10 18:46N 22°34' E 114°16'0 0.0
2017-Nov-10 16:52N 22°34' E 114°16'0 0.0
2017-Nov-10 15:55N 22°34' E 114°16'0 0.0
2017-Nov-10 15:25N 22°34' E 114°16'0 0.1
2017-Nov-10 14:58N 22°34' E 114°16'0 0.0
2017-Nov-10 14:28N 22°34' E 114°16'0 0.0
2017-Nov-10 13:58N 22°34' E 114°16'0 0.0
2017-Nov-10 13:28N 22°34' E 114°16'0 0.0
2017-Nov-10 12:58N 22°34' E 114°16'0 0.0
2017-Nov-10 12:28N 22°34' E 114°16'0 0.1
2017-Nov-10 11:58N 22°34' E 114°16'0 0.1
2017-Nov-10 11:28N 22°34' E 114°16'0 0.0
2017-Nov-10 10:58N 22°34' E 114°16'0 0.0
2017-Nov-10 10:30N 22°34' E 114°16'1 2.4
2017-Nov-10 10:00N 22°34' E 114°17'510.3
2017-Nov-10 09:30N 22°33' E 114°23'510.6
2017-Nov-10 09:00N 22°29' E 114°27'714.6
2017-Nov-10 08:30N 22°23' E 114°30'917.4
2017-Nov-10 08:00N 22°20' E 114°39'917.5
2017-Nov-10 07:30N 22°17' E 114°48'917.4
2017-Nov-10 07:00N 22°13' E 114°56'917.7
2017-Nov-10 06:30N 22°13' E 115°06'917.7
2017-Nov-10 06:00N 22°13' E 115°15'917.8
2017-Nov-10 05:30N 22°14' E 115°25'25119.1
2017-Nov-09 16:22N 22°30' E 119°55'719.0
2017-Nov-09 16:00N 22°31' E 120°03'917.5
2017-Nov-09 15:30N 22°32' E 120°12'611.6
2017-Nov-09 15:00N 22°33' E 120°18'1 2.2
2017-Nov-09 14:22N 22°33' E 120°20'0 0.0
2017-Nov-09 10:49N 22°33' E 120°20'0 0.0
2017-Nov-09 08:43N 22°33' E 120°20'0 0.0
2017-Nov-09 08:13N 22°33' E 120°20'0 0.0
2017-Nov-09 06:25N 22°33' E 120°20'0 0.0
2017-Nov-09 05:58N 22°33' E 120°20'0 0.0
2017-Nov-09 05:28N 22°33' E 120°20'0 0.0
2017-Nov-09 04:52N 22°33' E 120°20'0 0.0
2017-Nov-09 04:22N 22°33' E 120°20'0 0.0
2017-Nov-09 03:58N 22°33' E 120°20'0 0.0
2017-Nov-09 03:22N 22°33' E 120°20'0 0.0
2017-Nov-09 02:43N 22°33' E 120°20'0 0.0
2017-Nov-09 02:30N 22°33' E 120°20'1 2.0
2017-Nov-09 02:00N 22°33' E 120°19'4 7.2
2017-Nov-09 01:30N 22°32' E 120°15'2 3.1
2017-Nov-09 01:00N 22°32' E 120°14'3 6.6
2017-Nov-09 00:30N 22°30' E 120°10'612.9
2017-Nov-09 00:00N 22°29' E 120°04'1019.0
2017-Nov-08 23:30N 22°22' E 119°56'  
2017-Nov-01 23:58N 01°15' E 104°02'714.4
2017-Nov-01 23:30N 01°14' E 103°56'3 7.0
2017-Nov-01 23:00N 01°14' E 103°52'3 5.1
2017-Nov-01 22:30N 01°16' E 103°51'1 1.2
2017-Nov-01 22:00N 01°16' E 103°50'  

Dump ship's entire track history